NSZ31K LKPR-EKCH
Flight info
| Callsign | NSZ31K |
|---|---|
| Flight time | 1h 10m |
| Altitude | 34000 |
| Route | VENOX DCT DEKOV Y621 GARKI DCT POGAB Z36 OBANI M725 GERGA T239 PEROM T298 MONAK |
| Aircraft | B738/M-SDE2E3GHILRWXY/LB1 |
Departure
| Time | 2026-04-26 14:56 |
|---|---|
| Airport | Václav Havel Airport Prague (LKPR) |
Arrival
| Time | 2026-04-26 16:07 |
|---|---|
| Airport | Copenhagen Kastrup Airport (EKCH) |
| Time | Latitude | Longitude | Altitude | Speed | Heading |
|---|---|---|---|---|---|
| 2026-04-26 14:26 | 50.10693 | 14.26372 | 1176 ft | 0 kts | 214° |
| 2026-04-26 14:43 | 50.10693 | 14.26373 | 1176 ft | 0 kts | 214° |
| 2026-04-26 14:44 | 50.10709 | 14.26390 | 1173 ft | 4 kts | 214° |
| 2026-04-26 14:44 | 50.10728 | 14.26411 | 1174 ft | 4 kts | 239° |
| 2026-04-26 14:44 | 50.10730 | 14.26445 | 1176 ft | 4 kts | 299° |
| 2026-04-26 14:44 | 50.10721 | 14.26467 | 1176 ft | 1 kts | 305° |
| 2026-04-26 14:45 | 50.10720 | 14.26470 | 1176 ft | 0 kts | 305° |
| 2026-04-26 14:47 | 50.10720 | 14.26469 | 1176 ft | 1 kts | 305° |
| 2026-04-26 14:47 | 50.10741 | 14.26424 | 1175 ft | 7 kts | 305° |
| 2026-04-26 14:47 | 50.10763 | 14.26373 | 1172 ft | 7 kts | 304° |
| 2026-04-26 14:48 | 50.10790 | 14.26313 | 1175 ft | 7 kts | 303° |
| 2026-04-26 14:48 | 50.10789 | 14.26243 | 1171 ft | 7 kts | 230° |
| 2026-04-26 14:48 | 50.10758 | 14.26205 | 1173 ft | 8 kts | 214° |
| 2026-04-26 14:48 | 50.10704 | 14.26148 | 1171 ft | 13 kts | 214° |
| 2026-04-26 14:49 | 50.10630 | 14.26070 | 1174 ft | 13 kts | 213° |
| 2026-04-26 14:49 | 50.10556 | 14.25997 | 1176 ft | 12 kts | 213° |
| 2026-04-26 14:49 | 50.10499 | 14.25987 | 1183 ft | 9 kts | 143° |
| 2026-04-26 14:49 | 50.10460 | 14.26058 | 1185 ft | 9 kts | 127° |
| 2026-04-26 14:50 | 50.10425 | 14.26132 | 1186 ft | 8 kts | 126° |
| 2026-04-26 14:50 | 50.10392 | 14.26203 | 1187 ft | 8 kts | 127° |
| 2026-04-26 14:50 | 50.10358 | 14.26272 | 1189 ft | 8 kts | 127° |
| 2026-04-26 14:50 | 50.10324 | 14.26342 | 1190 ft | 9 kts | 127° |
| 2026-04-26 14:51 | 50.10279 | 14.26434 | 1192 ft | 12 kts | 126° |
| 2026-04-26 14:51 | 50.10224 | 14.26551 | 1194 ft | 15 kts | 126° |
| 2026-04-26 14:51 | 50.10155 | 14.26693 | 1196 ft | 18 kts | 127° |
| 2026-04-26 14:51 | 50.10079 | 14.26851 | 1200 ft | 18 kts | 127° |
| 2026-04-26 14:52 | 50.10006 | 14.27004 | 1203 ft | 18 kts | 127° |
| 2026-04-26 14:52 | 50.09932 | 14.27154 | 1205 ft | 17 kts | 127° |
| 2026-04-26 14:52 | 50.09862 | 14.27299 | 1203 ft | 17 kts | 130° |
| 2026-04-26 14:52 | 50.09782 | 14.27427 | 1205 ft | 16 kts | 135° |
| 2026-04-26 14:53 | 50.09702 | 14.27548 | 1206 ft | 16 kts | 136° |
| 2026-04-26 14:53 | 50.09625 | 14.27662 | 1207 ft | 15 kts | 135° |
| 2026-04-26 14:53 | 50.09554 | 14.27772 | 1209 ft | 14 kts | 135° |
| 2026-04-26 14:53 | 50.09485 | 14.27878 | 1213 ft | 14 kts | 136° |
| 2026-04-26 14:54 | 50.09424 | 14.27973 | 1216 ft | 13 kts | 135° |
| 2026-04-26 14:54 | 50.09361 | 14.28072 | 1219 ft | 13 kts | 134° |
| 2026-04-26 14:54 | 50.09300 | 14.28167 | 1223 ft | 12 kts | 135° |
| 2026-04-26 14:54 | 50.09241 | 14.28257 | 1225 ft | 12 kts | 137° |
| 2026-04-26 14:55 | 50.09179 | 14.28288 | 1230 ft | 11 kts | 186° |
| 2026-04-26 14:55 | 50.09114 | 14.28233 | 1244 ft | 11 kts | 217° |
| 2026-04-26 14:55 | 50.09060 | 14.28168 | 1249 ft | 5 kts | 231° |
| 2026-04-26 14:55 | 50.09076 | 14.28110 | 1232 ft | 8 kts | 307° |
| 2026-04-26 14:56 | 50.09202 | 14.27848 | 1229 ft | 62 kts | 307° |
| 2026-04-26 14:56 | 50.09599 | 14.27023 | 1213 ft | 125 kts | 307° |
| 2026-04-26 14:56 | 50.10214 | 14.25764 | 1259 ft | 169 kts | 308° |
| 2026-04-26 14:56 | 50.10936 | 14.24266 | 1862 ft | 171 kts | 309° |
| 2026-04-26 14:57 | 50.11400 | 14.23314 | 2399 ft | 168 kts | 308° |
| 2026-04-26 14:57 | 50.12110 | 14.21828 | 3028 ft | 176 kts | 309° |
| 2026-04-26 14:57 | 50.12894 | 14.20195 | 3326 ft | 200 kts | 309° |
| 2026-04-26 14:57 | 50.13509 | 14.18914 | 3455 ft | 215 kts | 308° |
| 2026-04-26 14:58 | 50.14439 | 14.16984 | 3773 ft | 228 kts | 308° |
| 2026-04-26 14:58 | 50.15395 | 14.14996 | 4091 ft | 244 kts | 308° |
| 2026-04-26 14:58 | 50.16436 | 14.12828 | 4591 ft | 255 kts | 308° |
| 2026-04-26 14:58 | 50.17339 | 14.10958 | 5265 ft | 255 kts | 308° |
| 2026-04-26 14:59 | 50.18400 | 14.08749 | 6117 ft | 255 kts | 308° |
| 2026-04-26 14:59 | 50.18888 | 14.07729 | 6444 ft | 258 kts | 308° |
| 2026-04-26 14:59 | 50.19847 | 14.05799 | 7052 ft | 261 kts | 315° |
| 2026-04-26 14:59 | 50.20569 | 14.04898 | 7398 ft | 262 kts | 332° |
| 2026-04-26 15:00 | 50.21869 | 14.04318 | 7929 ft | 264 kts | 357° |
| 2026-04-26 15:00 | 50.23494 | 14.04507 | 8614 ft | 266 kts | 7° |
| 2026-04-26 15:00 | 50.25341 | 14.04966 | 9252 ft | 271 kts | 8° |
| 2026-04-26 15:00 | 50.27213 | 14.05470 | 9959 ft | 274 kts | 7° |
| 2026-04-26 15:01 | 50.29088 | 14.05977 | 10696 ft | 276 kts | 7° |
| 2026-04-26 15:01 | 50.31055 | 14.06499 | 10902 ft | 298 kts | 6° |
| 2026-04-26 15:01 | 50.33173 | 14.07052 | 11089 ft | 318 kts | 6° |
| 2026-04-26 15:01 | 50.35400 | 14.07629 | 11497 ft | 329 kts | 6° |
| 2026-04-26 15:02 | 50.36699 | 14.07965 | 11883 ft | 330 kts | 6° |
| 2026-04-26 15:02 | 50.38960 | 14.08548 | 12608 ft | 331 kts | 6° |
| 2026-04-26 15:02 | 50.41112 | 14.09102 | 13282 ft | 333 kts | 5° |
| 2026-04-26 15:02 | 50.43357 | 14.09678 | 13978 ft | 335 kts | 5° |
| 2026-04-26 15:03 | 50.45702 | 14.10278 | 14671 ft | 338 kts | 5° |
| 2026-04-26 15:03 | 50.47956 | 14.10854 | 15363 ft | 340 kts | 5° |
| 2026-04-26 15:03 | 50.50303 | 14.11453 | 16052 ft | 343 kts | 5° |
| 2026-04-26 15:03 | 50.52659 | 14.12055 | 16754 ft | 344 kts | 5° |
| 2026-04-26 15:04 | 50.54294 | 14.12474 | 17241 ft | 345 kts | 5° |
| 2026-04-26 15:04 | 50.56620 | 14.13070 | 17913 ft | 346 kts | 5° |
| 2026-04-26 15:04 | 50.59007 | 14.13682 | 18545 ft | 348 kts | 4° |
| 2026-04-26 15:04 | 50.61411 | 14.14297 | 19139 ft | 352 kts | 4° |
| 2026-04-26 15:05 | 50.63767 | 14.14900 | 19639 ft | 356 kts | 4° |
| 2026-04-26 15:05 | 50.65427 | 14.15326 | 20002 ft | 359 kts | 4° |
| 2026-04-26 15:05 | 50.68636 | 14.16150 | 20715 ft | 363 kts | 4° |
| 2026-04-26 15:05 | 50.71143 | 14.16796 | 21224 ft | 367 kts | 4° |
| 2026-04-26 15:06 | 50.73591 | 14.17427 | 21657 ft | 371 kts | 4° |
| 2026-04-26 15:06 | 50.76150 | 14.18087 | 22140 ft | 374 kts | 4° |
| 2026-04-26 15:06 | 50.78726 | 14.18753 | 22638 ft | 376 kts | 4° |
| 2026-04-26 15:06 | 50.81320 | 14.19425 | 23115 ft | 379 kts | 4° |
| 2026-04-26 15:07 | 50.86471 | 14.20759 | 23998 ft | 384 kts | 4° |
| 2026-04-26 15:07 | 50.89121 | 14.21305 | 24405 ft | 384 kts | 358° |
| 2026-04-26 15:07 | 50.91764 | 14.21247 | 24789 ft | 382 kts | 349° |
| 2026-04-26 15:08 | 50.94397 | 14.20668 | 25202 ft | 383 kts | 347° |
| 2026-04-26 15:08 | 50.97036 | 14.20043 | 25658 ft | 384 kts | 347° |
| 2026-04-26 15:08 | 50.99692 | 14.19426 | 26010 ft | 388 kts | 347° |
| 2026-04-26 15:08 | 51.02352 | 14.18829 | 26356 ft | 391 kts | 347° |
| 2026-04-26 15:09 | 51.05058 | 14.18233 | 26716 ft | 394 kts | 348° |
| 2026-04-26 15:09 | 51.07551 | 14.17693 | 27076 ft | 395 kts | 348° |
| 2026-04-26 15:09 | 51.10286 | 14.17141 | 27421 ft | 398 kts | 348° |
| 2026-04-26 15:09 | 51.13072 | 14.16595 | 27469 ft | 408 kts | 348° |
| 2026-04-26 15:10 | 51.15901 | 14.16045 | 27689 ft | 413 kts | 348° |
| 2026-04-26 15:10 | 51.17795 | 14.15676 | 27935 ft | 414 kts | 348° |
| 2026-04-26 15:10 | 51.21628 | 14.14928 | 28410 ft | 416 kts | 348° |
| 2026-04-26 15:10 | 51.24417 | 14.14380 | 28713 ft | 418 kts | 347° |
| 2026-04-26 15:11 | 51.27348 | 14.13799 | 29000 ft | 420 kts | 347° |
| 2026-04-26 15:11 | 51.30256 | 14.13219 | 29285 ft | 422 kts | 347° |
| 2026-04-26 15:11 | 51.33173 | 14.12638 | 29545 ft | 424 kts | 347° |
| 2026-04-26 15:11 | 51.36112 | 14.12054 | 29791 ft | 427 kts | 347° |
| 2026-04-26 15:12 | 51.39023 | 14.11472 | 30098 ft | 427 kts | 346° |
| 2026-04-26 15:12 | 51.41893 | 14.10765 | 30447 ft | 425 kts | 345° |
| 2026-04-26 15:12 | 51.44755 | 14.09942 | 30806 ft | 423 kts | 343° |
| 2026-04-26 15:12 | 51.47637 | 14.09074 | 31137 ft | 423 kts | 343° |
| 2026-04-26 15:13 | 51.50527 | 14.08206 | 31478 ft | 422 kts | 344° |
| 2026-04-26 15:13 | 51.53412 | 14.07355 | 31811 ft | 422 kts | 344° |
| 2026-04-26 15:13 | 51.56300 | 14.06513 | 32094 ft | 422 kts | 344° |
| 2026-04-26 15:13 | 51.59188 | 14.05681 | 32405 ft | 421 kts | 344° |
| 2026-04-26 15:14 | 51.62006 | 14.04874 | 32731 ft | 420 kts | 344° |
| 2026-04-26 15:14 | 51.64935 | 14.04035 | 33014 ft | 420 kts | 344° |
| 2026-04-26 15:14 | 51.67809 | 14.03210 | 33299 ft | 419 kts | 344° |
| 2026-04-26 15:14 | 51.70676 | 14.02387 | 33605 ft | 418 kts | 344° |
| 2026-04-26 15:15 | 51.73540 | 14.01564 | 33887 ft | 418 kts | 343° |
| 2026-04-26 15:15 | 51.76346 | 14.00755 | 34118 ft | 418 kts | 343° |
| 2026-04-26 15:15 | 51.79066 | 13.99972 | 34308 ft | 420 kts | 344° |
| 2026-04-26 15:15 | 51.81920 | 13.99169 | 34283 ft | 425 kts | 346° |
| 2026-04-26 15:16 | 51.87908 | 13.99235 | 34284 ft | 438 kts | 3° |
| 2026-04-26 15:16 | 51.93867 | 14.01046 | 34291 ft | 434 kts | 4° |
| 2026-04-26 15:17 | 51.98792 | 14.02580 | 34294 ft | 433 kts | 4° |
| 2026-04-26 15:17 | 52.05695 | 14.04664 | 34296 ft | 432 kts | 4° |
| 2026-04-26 15:18 | 52.11607 | 14.06423 | 34293 ft | 432 kts | 4° |
| 2026-04-26 15:18 | 52.17531 | 14.08185 | 34299 ft | 433 kts | 4° |
| 2026-04-26 15:19 | 52.23462 | 14.09866 | 34293 ft | 430 kts | 359° |
| 2026-04-26 15:19 | 52.29281 | 14.09454 | 34307 ft | 418 kts | 345° |
| 2026-04-26 15:20 | 52.35028 | 14.08110 | 34292 ft | 420 kts | 346° |
| 2026-04-26 15:20 | 52.40840 | 14.06919 | 34296 ft | 421 kts | 347° |
| 2026-04-26 15:21 | 52.46658 | 14.05703 | 34294 ft | 422 kts | 346° |
| 2026-04-26 15:21 | 52.52475 | 14.04464 | 34298 ft | 421 kts | 346° |
| 2026-04-26 15:22 | 52.57348 | 14.03428 | 34295 ft | 421 kts | 346° |
| 2026-04-26 15:22 | 52.62998 | 14.01762 | 34298 ft | 413 kts | 339° |
| 2026-04-26 15:23 | 52.68468 | 13.99152 | 34301 ft | 411 kts | 338° |
| 2026-04-26 15:23 | 52.73970 | 13.96548 | 34313 ft | 411 kts | 339° |
| 2026-04-26 15:24 | 52.79471 | 13.94020 | 34300 ft | 411 kts | 339° |
| 2026-04-26 15:24 | 52.84982 | 13.91478 | 34312 ft | 412 kts | 339° |
| 2026-04-26 15:25 | 52.90484 | 13.88927 | 34313 ft | 412 kts | 339° |
| 2026-04-26 15:25 | 52.96001 | 13.86363 | 34299 ft | 412 kts | 339° |
| 2026-04-26 15:26 | 53.01266 | 13.83910 | 34313 ft | 411 kts | 339° |
| 2026-04-26 15:26 | 53.06579 | 13.81427 | 34315 ft | 411 kts | 339° |
| 2026-04-26 15:27 | 53.11915 | 13.78930 | 34309 ft | 411 kts | 339° |
| 2026-04-26 15:27 | 53.17381 | 13.76374 | 34311 ft | 411 kts | 339° |
| 2026-04-26 15:28 | 53.22317 | 13.74072 | 34296 ft | 403 kts | 339° |
| 2026-04-26 15:28 | 53.27505 | 13.71650 | 34302 ft | 395 kts | 339° |
| 2026-04-26 15:29 | 53.32786 | 13.69166 | 34319 ft | 394 kts | 339° |
| 2026-04-26 15:30 | 53.42927 | 13.64381 | 34298 ft | 392 kts | 338° |
| 2026-04-26 15:30 | 53.48173 | 13.61899 | 34322 ft | 392 kts | 338° |
| 2026-04-26 15:31 | 53.55567 | 13.58358 | 34329 ft | 392 kts | 338° |
| 2026-04-26 15:32 | 53.62398 | 13.54969 | 34320 ft | 393 kts | 338° |
| 2026-04-26 15:32 | 53.68426 | 13.51981 | 34320 ft | 393 kts | 338° |
| 2026-04-26 15:33 | 53.73132 | 13.49661 | 34323 ft | 393 kts | 338° |
| 2026-04-26 15:33 | 53.78325 | 13.47170 | 34323 ft | 394 kts | 338° |
| 2026-04-26 15:34 | 53.83514 | 13.44667 | 34313 ft | 377 kts | 338° |
| 2026-04-26 15:34 | 53.88425 | 13.42276 | 33694 ft | 375 kts | 338° |
| 2026-04-26 15:35 | 53.90903 | 13.41068 | 33546 ft | 369 kts | 338° |
| 2026-04-26 15:35 | 53.93259 | 13.39916 | 32998 ft | 370 kts | 338° |
| 2026-04-26 15:35 | 53.95717 | 13.38714 | 32584 ft | 367 kts | 338° |
| 2026-04-26 15:35 | 53.98162 | 13.37516 | 32226 ft | 364 kts | 338° |
| 2026-04-26 15:36 | 54.00573 | 13.36335 | 31834 ft | 361 kts | 338° |
| 2026-04-26 15:36 | 54.02972 | 13.35158 | 31472 ft | 357 kts | 338° |
| 2026-04-26 15:36 | 54.05348 | 13.33991 | 31104 ft | 354 kts | 338° |
| 2026-04-26 15:36 | 54.07050 | 13.33154 | 30846 ft | 351 kts | 338° |
| 2026-04-26 15:37 | 54.09417 | 13.31990 | 30482 ft | 348 kts | 338° |
| 2026-04-26 15:37 | 54.11733 | 13.30849 | 30126 ft | 345 kts | 338° |
| 2026-04-26 15:37 | 54.14024 | 13.29720 | 29766 ft | 341 kts | 338° |
| 2026-04-26 15:37 | 54.16290 | 13.28601 | 29400 ft | 337 kts | 338° |
| 2026-04-26 15:38 | 54.18535 | 13.27490 | 29036 ft | 334 kts | 338° |
| 2026-04-26 15:38 | 54.20758 | 13.26389 | 28678 ft | 331 kts | 338° |
| 2026-04-26 15:38 | 54.22958 | 13.25298 | 28321 ft | 328 kts | 338° |
| 2026-04-26 15:38 | 54.25084 | 13.24243 | 27979 ft | 325 kts | 338° |
| 2026-04-26 15:39 | 54.27243 | 13.23170 | 27627 ft | 322 kts | 338° |
| 2026-04-26 15:39 | 54.29383 | 13.22107 | 27284 ft | 319 kts | 338° |
| 2026-04-26 15:39 | 54.31384 | 13.21110 | 26966 ft | 316 kts | 338° |
| 2026-04-26 15:39 | 54.32808 | 13.20401 | 26728 ft | 314 kts | 338° |
| 2026-04-26 15:40 | 54.35600 | 13.19007 | 26282 ft | 311 kts | 338° |
| 2026-04-26 15:40 | 54.37637 | 13.17988 | 25949 ft | 308 kts | 338° |
| 2026-04-26 15:40 | 54.39687 | 13.16965 | 25618 ft | 305 kts | 339° |
| 2026-04-26 15:40 | 54.41743 | 13.15937 | 25290 ft | 303 kts | 338° |
| 2026-04-26 15:41 | 54.43727 | 13.14926 | 24962 ft | 299 kts | 336° |
| 2026-04-26 15:41 | 54.45586 | 13.13435 | 24634 ft | 292 kts | 327° |
| 2026-04-26 15:41 | 54.47268 | 13.11559 | 24386 ft | 285 kts | 320° |
| 2026-04-26 15:41 | 54.48749 | 13.09320 | 24074 ft | 282 kts | 315° |
| 2026-04-26 15:42 | 54.50148 | 13.06986 | 23764 ft | 279 kts | 314° |
| 2026-04-26 15:42 | 54.51527 | 13.04647 | 23463 ft | 278 kts | 314° |
| 2026-04-26 15:42 | 54.52908 | 13.02304 | 23153 ft | 278 kts | 314° |
| 2026-04-26 15:42 | 54.54285 | 12.99970 | 22853 ft | 282 kts | 315° |
| 2026-04-26 15:43 | 54.55624 | 12.97708 | 22568 ft | 291 kts | 315° |
| 2026-04-26 15:43 | 54.57082 | 12.95247 | 22216 ft | 294 kts | 315° |
| 2026-04-26 15:43 | 54.59969 | 12.90377 | 21568 ft | 289 kts | 315° |
| 2026-04-26 15:44 | 54.61411 | 12.87944 | 21243 ft | 287 kts | 315° |
| 2026-04-26 15:44 | 54.64224 | 12.83189 | 20618 ft | 281 kts | 315° |
| 2026-04-26 15:44 | 54.65534 | 12.80973 | 20335 ft | 278 kts | 315° |
| 2026-04-26 15:45 | 54.68252 | 12.76370 | 19730 ft | 271 kts | 315° |
| 2026-04-26 15:45 | 54.69590 | 12.74096 | 19429 ft | 269 kts | 315° |
| 2026-04-26 15:46 | 54.72239 | 12.69600 | 18831 ft | 265 kts | 315° |
| 2026-04-26 15:46 | 54.73552 | 12.67372 | 18530 ft | 264 kts | 315° |
| 2026-04-26 15:46 | 54.74860 | 12.65153 | 18237 ft | 262 kts | 315° |
| 2026-04-26 15:46 | 54.75738 | 12.63659 | 18063 ft | 260 kts | 315° |
| 2026-04-26 15:47 | 54.77436 | 12.60767 | 17675 ft | 257 kts | 315° |
| 2026-04-26 15:47 | 54.79967 | 12.56457 | 17117 ft | 253 kts | 315° |
| 2026-04-26 15:47 | 54.81222 | 12.54320 | 16853 ft | 253 kts | 315° |
| 2026-04-26 15:48 | 54.82446 | 12.52231 | 16576 ft | 255 kts | 315° |
| 2026-04-26 15:48 | 54.83741 | 12.50021 | 16298 ft | 263 kts | 315° |
| 2026-04-26 15:48 | 54.85062 | 12.47763 | 15993 ft | 269 kts | 315° |
| 2026-04-26 15:48 | 54.86397 | 12.45482 | 15676 ft | 269 kts | 315° |
| 2026-04-26 15:49 | 54.87718 | 12.43222 | 15360 ft | 267 kts | 315° |
| 2026-04-26 15:49 | 54.89035 | 12.40965 | 15056 ft | 265 kts | 315° |
| 2026-04-26 15:49 | 54.90323 | 12.38755 | 14752 ft | 263 kts | 315° |
| 2026-04-26 15:49 | 54.91623 | 12.36525 | 14447 ft | 262 kts | 315° |
| 2026-04-26 15:50 | 54.93088 | 12.34687 | 14119 ft | 262 kts | 336° |
| 2026-04-26 15:50 | 54.94873 | 12.34032 | 13848 ft | 265 kts | 354° |
| 2026-04-26 15:50 | 54.96719 | 12.34367 | 13537 ft | 272 kts | 10° |
| 2026-04-26 15:50 | 54.98444 | 12.35821 | 13242 ft | 280 kts | 26° |
| 2026-04-26 15:51 | 55.00057 | 12.37710 | 12930 ft | 280 kts | 27° |
| 2026-04-26 15:51 | 55.01659 | 12.39621 | 12627 ft | 279 kts | 27° |
| 2026-04-26 15:51 | 55.03262 | 12.41513 | 12315 ft | 277 kts | 27° |
| 2026-04-26 15:51 | 55.04856 | 12.43386 | 12020 ft | 276 kts | 27° |
| 2026-04-26 15:52 | 55.06437 | 12.45243 | 11732 ft | 272 kts | 27° |
| 2026-04-26 15:52 | 55.08002 | 12.47081 | 11430 ft | 271 kts | 27° |
| 2026-04-26 15:52 | 55.09535 | 12.48877 | 11145 ft | 270 kts | 27° |
| 2026-04-26 15:52 | 55.10567 | 12.50087 | 10954 ft | 269 kts | 27° |
| 2026-04-26 15:53 | 55.12642 | 12.52520 | 10569 ft | 268 kts | 28° |
| 2026-04-26 15:53 | 55.14171 | 12.54320 | 10426 ft | 261 kts | 28° |
| 2026-04-26 15:53 | 55.15635 | 12.56042 | 10284 ft | 255 kts | 28° |
| 2026-04-26 15:53 | 55.17096 | 12.57757 | 10026 ft | 254 kts | 28° |
| 2026-04-26 15:54 | 55.18553 | 12.59468 | 9776 ft | 252 kts | 29° |
| 2026-04-26 15:54 | 55.20005 | 12.61180 | 9505 ft | 251 kts | 29° |
| 2026-04-26 15:54 | 55.21457 | 12.62893 | 9235 ft | 251 kts | 30° |
| 2026-04-26 15:54 | 55.22899 | 12.64594 | 8985 ft | 250 kts | 30° |
| 2026-04-26 15:55 | 55.24389 | 12.66171 | 8684 ft | 253 kts | 25° |
| 2026-04-26 15:55 | 55.25953 | 12.67655 | 8418 ft | 259 kts | 25° |
| 2026-04-26 15:55 | 55.27552 | 12.69171 | 8131 ft | 262 kts | 25° |
| 2026-04-26 15:55 | 55.29141 | 12.70693 | 7845 ft | 261 kts | 25° |
| 2026-04-26 15:56 | 55.30729 | 12.72218 | 7569 ft | 260 kts | 25° |
| 2026-04-26 15:56 | 55.32311 | 12.73748 | 7300 ft | 259 kts | 25° |
| 2026-04-26 15:56 | 55.33965 | 12.74882 | 7010 ft | 253 kts | 3° |
| 2026-04-26 15:56 | 55.35663 | 12.74494 | 6763 ft | 245 kts | 336° |
| 2026-04-26 15:57 | 55.37082 | 12.72917 | 6510 ft | 241 kts | 315° |
| 2026-04-26 15:57 | 55.38175 | 12.70702 | 6265 ft | 239 kts | 308° |
| 2026-04-26 15:57 | 55.39198 | 12.68393 | 5999 ft | 239 kts | 308° |
| 2026-04-26 15:57 | 55.39870 | 12.66871 | 5829 ft | 238 kts | 308° |
| 2026-04-26 15:58 | 55.41252 | 12.63767 | 5247 ft | 245 kts | 308° |
| 2026-04-26 15:58 | 55.42197 | 12.61278 | 4897 ft | 247 kts | 292° |
| 2026-04-26 15:58 | 55.42423 | 12.58301 | 4639 ft | 249 kts | 265° |
| 2026-04-26 15:58 | 55.41869 | 12.55420 | 4385 ft | 252 kts | 241° |
| 2026-04-26 15:59 | 55.40723 | 12.53129 | 4285 ft | 247 kts | 226° |
| 2026-04-26 15:59 | 55.39442 | 12.51163 | 4150 ft | 241 kts | 224° |
| 2026-04-26 15:59 | 55.38189 | 12.49284 | 4033 ft | 233 kts | 224° |
| 2026-04-26 15:59 | 55.37011 | 12.47399 | 3889 ft | 225 kts | 235° |
| 2026-04-26 16:00 | 55.36519 | 12.44940 | 3763 ft | 212 kts | 275° |
| 2026-04-26 16:00 | 55.36915 | 12.42484 | 3664 ft | 211 kts | 301° |
| 2026-04-26 16:00 | 55.37874 | 12.40588 | 3527 ft | 215 kts | 324° |
| 2026-04-26 16:00 | 55.39203 | 12.39429 | 3424 ft | 217 kts | 336° |
| 2026-04-26 16:01 | 55.40596 | 12.38405 | 3275 ft | 218 kts | 335° |
| 2026-04-26 16:01 | 55.41958 | 12.37404 | 3136 ft | 218 kts | 338° |
| 2026-04-26 16:01 | 55.43492 | 12.37108 | 2963 ft | 219 kts | 11° |
| 2026-04-26 16:01 | 55.44850 | 12.38206 | 2966 ft | 213 kts | 32° |
| 2026-04-26 16:02 | 55.45990 | 12.39847 | 2966 ft | 210 kts | 37° |
| 2026-04-26 16:02 | 55.47049 | 12.41507 | 2972 ft | 196 kts | 38° |
| 2026-04-26 16:02 | 55.48047 | 12.43065 | 2782 ft | 189 kts | 37° |
| 2026-04-26 16:02 | 55.48709 | 12.44090 | 2668 ft | 185 kts | 37° |
| 2026-04-26 16:03 | 55.49949 | 12.46013 | 2445 ft | 176 kts | 37° |
| 2026-04-26 16:03 | 55.50859 | 12.47415 | 2220 ft | 171 kts | 37° |
| 2026-04-26 16:03 | 55.51747 | 12.48790 | 1981 ft | 169 kts | 37° |
| 2026-04-26 16:03 | 55.52611 | 12.50136 | 1783 ft | 162 kts | 37° |
| 2026-04-26 16:04 | 55.53423 | 12.51391 | 1626 ft | 150 kts | 37° |
| 2026-04-26 16:04 | 55.54221 | 12.52621 | 1373 ft | 153 kts | 37° |
| 2026-04-26 16:04 | 55.55030 | 12.53875 | 1163 ft | 155 kts | 37° |
| 2026-04-26 16:04 | 55.55832 | 12.55120 | 955 ft | 152 kts | 37° |
| 2026-04-26 16:05 | 55.56614 | 12.56339 | 677 ft | 149 kts | 37° |
| 2026-04-26 16:05 | 55.57391 | 12.57536 | 463 ft | 146 kts | 38° |
| 2026-04-26 16:05 | 55.58151 | 12.58705 | 277 ft | 143 kts | 39° |
| 2026-04-26 16:05 | 55.58896 | 12.59858 | 116 ft | 143 kts | 38° |
| 2026-04-26 16:06 | 55.59639 | 12.60999 | 22 ft | 136 kts | 39° |
| 2026-04-26 16:06 | 55.60245 | 12.61935 | 16 ft | 88 kts | 41° |
| 2026-04-26 16:06 | 55.60629 | 12.62533 | 19 ft | 68 kts | 41° |
| 2026-04-26 16:06 | 55.60964 | 12.63051 | 19 ft | 60 kts | 41° |
| 2026-04-26 16:07 | 55.61251 | 12.63493 | 19 ft | 45 kts | 41° |
| 2026-04-26 16:07 | 55.61476 | 12.63843 | 18 ft | 40 kts | 40° |
| 2026-04-26 16:07 | 55.61605 | 12.64042 | 21 ft | 15 kts | 42° |
| 2026-04-26 16:07 | 55.61701 | 12.64086 | 17 ft | 16 kts | 355° |
| 2026-04-26 16:08 | 55.61761 | 12.64079 | 16 ft | 0 kts | 357° |
| 2026-04-26 16:08 | 55.61762 | 12.64079 | 16 ft | 0 kts | 357° |
| 2026-04-26 16:08 | 55.61775 | 12.64078 | 16 ft | 6 kts | 357° |
| 2026-04-26 16:08 | 55.61824 | 12.64072 | 16 ft | 14 kts | 356° |
| 2026-04-26 16:09 | 55.61924 | 12.64116 | 17 ft | 15 kts | 25° |
| 2026-04-26 16:09 | 55.62018 | 12.64193 | 18 ft | 15 kts | 25° |
| 2026-04-26 16:09 | 55.62107 | 12.64269 | 16 ft | 14 kts | 26° |
| 2026-04-26 16:09 | 55.62192 | 12.64342 | 15 ft | 14 kts | 25° |
| 2026-04-26 16:10 | 55.62279 | 12.64397 | 15 ft | 13 kts | 16° |
| 2026-04-26 16:10 | 55.62366 | 12.64439 | 16 ft | 13 kts | 14° |
| 2026-04-26 16:10 | 55.62442 | 12.64396 | 17 ft | 12 kts | 310° |
| 2026-04-26 16:10 | 55.62494 | 12.64277 | 17 ft | 12 kts | 303° |
| 2026-04-26 16:11 | 55.62541 | 12.64148 | 17 ft | 14 kts | 303° |
| 2026-04-26 16:11 | 55.62597 | 12.63999 | 17 ft | 15 kts | 303° |
| 2026-04-26 16:11 | 55.62656 | 12.63862 | 17 ft | 14 kts | 336° |
| 2026-04-26 16:11 | 55.62743 | 12.63923 | 17 ft | 13 kts | 33° |
| 2026-04-26 16:12 | 55.62825 | 12.63931 | 16 ft | 8 kts | 330° |
| 2026-04-26 16:12 | 55.62862 | 12.63929 | 16 ft | 3 kts | 10° |
| 2026-04-26 16:12 | 55.62882 | 12.63936 | 16 ft | 0 kts | 11° |